createdAt,value
2023-08-06T00:01:51.929Z,100295.06
2023-08-06T00:04:26.000Z,100288.91
2023-08-06T00:06:58.554Z,100290.47
2023-08-06T00:09:31.370Z,100291.34
2023-08-06T00:12:04.744Z,100288.50
2023-08-06T00:14:39.117Z,100292.56
2023-08-06T00:17:12.008Z,100297.41
2023-08-06T00:19:44.764Z,100287.03
2023-08-06T00:22:17.430Z,100287.69
2023-08-06T00:24:50.197Z,100285.09
2023-08-06T00:27:23.322Z,100285.97
2023-08-06T00:29:57.365Z,100292.41
2023-08-06T00:32:30.239Z,100292.75
2023-08-06T00:35:04.319Z,100302.28
2023-08-06T00:37:37.135Z,100296.03
2023-08-06T00:40:10.414Z,100297.69
2023-08-06T00:42:45.323Z,100302.78
2023-08-06T00:45:19.688Z,100299.69
2023-08-06T00:47:52.393Z,100299.75
2023-08-06T00:50:25.313Z,100295.88
2023-08-06T00:52:58.411Z,100298.75
2023-08-06T00:55:31.582Z,100303.50
2023-08-06T00:58:04.584Z,100303.56
2023-08-06T01:00:39.164Z,100301.56
2023-08-06T01:03:12.181Z,100304.53
2023-08-06T01:05:45.139Z,100307.56
2023-08-06T01:08:38.465Z,100308.00
2023-08-06T01:11:35.543Z,100310.84
2023-08-06T01:14:16.626Z,100313.56
2023-08-06T01:16:52.973Z,100309.13
2023-08-06T01:19:27.735Z,100316.66
2023-08-06T01:22:02.089Z,100314.75
2023-08-06T01:24:35.348Z,100320.72
2023-08-06T01:27:13.542Z,100319.16
2023-08-06T01:29:53.273Z,100323.59
2023-08-06T01:32:28.508Z,100331.03
2023-08-06T01:35:03.350Z,100331.56
2023-08-06T01:37:39.033Z,100326.69
2023-08-06T01:40:12.905Z,100332.97
2023-08-06T01:42:45.907Z,100328.25
2023-08-06T01:45:20.020Z,100335.13
2023-08-06T01:47:53.252Z,100330.78
2023-08-06T01:50:26.368Z,100338.66
2023-08-06T01:53:00.566Z,100337.88
2023-08-06T01:55:33.652Z,100344.91
2023-08-06T01:58:06.575Z,100341.00
2023-08-06T02:00:39.901Z,100347.44
2023-08-06T02:03:12.970Z,100345.06
2023-08-06T02:05:47.580Z,100353.47
2023-08-06T02:08:21.915Z,100358.25
2023-08-06T02:10:55.110Z,100353.81
2023-08-06T02:13:28.281Z,100352.19
2023-08-06T02:16:01.364Z,100357.81
2023-08-06T02:18:34.437Z,100358.41
2023-08-06T02:21:07.110Z,100369.66
2023-08-06T02:23:41.493Z,100365.34
2023-08-06T02:26:14.485Z,100368.44
2023-08-06T02:28:47.531Z,100368.13
2023-08-06T02:31:21.887Z,100365.34
2023-08-06T02:33:55.065Z,100376.16
2023-08-06T02:36:30.862Z,100375.22
2023-08-06T02:39:07.797Z,100371.03
2023-08-06T02:41:41.885Z,100374.69
2023-08-06T02:44:14.791Z,100377.09
2023-08-06T02:46:48.004Z,100369.03
2023-08-06T02:49:21.112Z,100375.03
2023-08-06T02:51:54.860Z,100370.75
2023-08-06T02:54:29.589Z,100379.84
2023-08-06T02:57:02.542Z,100377.09
2023-08-06T02:59:38.506Z,100384.19
2023-08-06T03:02:16.264Z,100387.34
2023-08-06T03:05:13.116Z,100401.69
2023-08-06T03:07:50.440Z,100404.25
2023-08-06T03:10:33.120Z,100415.34
2023-08-06T03:13:09.359Z,100411.00
2023-08-06T03:15:42.209Z,100429.53
2023-08-06T03:18:17.068Z,100419.31
2023-08-06T03:20:50.478Z,100439.19
2023-08-06T03:23:24.045Z,100448.06
2023-08-06T03:25:58.253Z,100437.00
2023-08-06T03:28:31.291Z,100435.19
2023-08-06T03:31:05.052Z,100438.53
2023-08-06T03:33:46.856Z,100435.47
2023-08-06T03:36:22.928Z,100433.16
2023-08-06T03:38:56.878Z,100424.53
2023-08-06T03:41:31.106Z,100427.66
2023-08-06T03:44:05.136Z,100430.44
2023-08-06T03:46:38.621Z,100432.50
2023-08-06T03:49:13.681Z,100443.50
2023-08-06T03:51:48.072Z,100450.69
2023-08-06T03:54:21.028Z,100451.81
2023-08-06T03:56:55.251Z,100450.81
2023-08-06T03:59:28.133Z,100450.75
2023-08-06T04:02:02.827Z,100456.22
2023-08-06T04:04:35.626Z,100459.47
2023-08-06T04:07:08.497Z,100458.22
2023-08-06T04:09:57.600Z,100465.66
2023-08-06T04:12:33.797Z,100472.97
2023-08-06T04:15:08.084Z,100463.44
2023-08-06T04:17:41.390Z,100470.63
2023-08-06T04:20:14.158Z,100469.00
2023-08-06T04:22:47.051Z,100477.00
2023-08-06T04:25:22.197Z,100471.84
2023-08-06T04:27:56.557Z,100482.53
2023-08-06T04:30:30.483Z,100477.94
2023-08-06T04:33:03.837Z,100485.75
2023-08-06T04:35:36.839Z,100477.94
2023-08-06T04:38:09.688Z,100477.44
2023-08-06T04:40:43.311Z,100485.25
2023-08-06T04:43:17.613Z,100498.25
2023-08-06T04:45:51.699Z,100496.03
2023-08-06T04:48:25.059Z,100489.66
2023-08-06T04:50:57.925Z,100491.34
2023-08-06T04:53:30.754Z,100484.97
2023-08-06T04:56:03.672Z,100500.09
2023-08-06T04:58:40.427Z,100502.75
2023-08-06T05:01:13.548Z,100505.97
2023-08-06T05:03:49.016Z,100511.34
2023-08-06T05:06:21.926Z,100506.94
2023-08-06T05:08:54.835Z,100514.84
2023-08-06T05:11:27.719Z,100508.53
2023-08-06T05:14:01.966Z,100519.22
2023-08-06T05:16:35.020Z,100520.78
2023-08-06T05:19:08.123Z,100521.63
2023-08-06T05:21:41.220Z,100528.84
2023-08-06T05:24:14.311Z,100533.91
2023-08-06T05:26:48.900Z,100546.56
2023-08-06T05:29:23.297Z,100545.34
2023-08-06T05:31:56.504Z,100552.09
2023-08-06T05:34:29.732Z,100557.19
2023-08-06T05:37:02.656Z,100560.41
2023-08-06T05:39:35.495Z,100560.75
2023-08-06T05:42:09.331Z,100557.97
2023-08-06T05:44:43.467Z,100564.84
2023-08-06T05:47:16.551Z,100570.75
2023-08-06T05:49:49.480Z,100568.34
2023-08-06T05:52:25.494Z,100566.78
2023-08-06T05:54:58.529Z,100577.84
2023-08-06T05:57:31.166Z,100575.47
2023-08-06T06:00:07.372Z,100577.84
2023-08-06T06:02:45.566Z,100575.38
2023-08-06T06:05:18.171Z,100587.38
2023-08-06T06:07:51.067Z,100581.34
2023-08-06T06:10:23.870Z,100589.28
2023-08-06T06:12:56.692Z,100590.91
2023-08-06T06:15:31.216Z,100596.75
2023-08-06T06:18:04.348Z,100598.44
2023-08-06T06:20:37.195Z,100594.84
2023-08-06T06:23:10.161Z,100601.50
2023-08-06T06:25:47.130Z,100598.31
2023-08-06T06:28:20.592Z,100597.13
2023-08-06T06:30:55.710Z,100605.06
2023-08-06T06:33:28.949Z,100605.47
2023-08-06T06:36:04.714Z,100597.59
2023-08-06T06:38:38.229Z,100599.16
2023-08-06T06:41:11.104Z,100611.03
2023-08-06T06:43:44.823Z,100606.22
2023-08-06T06:46:19.233Z,100610.97
2023-08-06T06:48:52.334Z,100610.91
2023-08-06T06:51:25.238Z,100614.47
2023-08-06T06:54:00.480Z,100614.81
2023-08-06T06:56:33.706Z,100627.09
2023-08-06T06:59:06.943Z,100625.19
2023-08-06T07:01:41.317Z,100635.03
2023-08-06T07:04:14.295Z,100622.88
2023-08-06T07:06:47.137Z,100631.34
2023-08-06T07:09:19.971Z,100629.97
2023-08-06T07:11:53.260Z,100640.59
2023-08-06T07:14:27.902Z,100631.69
2023-08-06T07:17:02.465Z,100638.69
2023-08-06T07:19:35.272Z,100638.59
2023-08-06T07:22:08.568Z,100635.41
2023-08-06T07:24:41.577Z,100641.75
2023-08-06T07:27:15.355Z,100638.16
2023-08-06T07:29:49.175Z,100645.03
2023-08-06T07:32:23.850Z,100646.88
2023-08-06T07:35:00.596Z,100649.94
2023-08-06T07:37:33.600Z,100643.38
2023-08-06T07:40:09.806Z,100643.38
2023-08-06T07:42:42.708Z,100652.66
2023-08-06T07:45:16.655Z,100658.00
2023-08-06T07:47:51.028Z,100646.28
2023-08-06T07:50:23.923Z,100654.84
2023-08-06T07:52:56.697Z,100648.34
2023-08-06T07:55:29.634Z,100649.44
2023-08-06T07:58:02.374Z,100651.00
2023-08-06T08:00:35.354Z,100659.88
2023-08-06T08:03:09.810Z,100649.16
2023-08-06T08:05:43.185Z,100654.06
2023-08-06T08:08:18.391Z,100651.09
2023-08-06T08:10:51.228Z,100657.47
2023-08-06T08:13:24.215Z,100658.09
2023-08-06T08:15:59.198Z,100660.81
2023-08-06T08:18:34.434Z,100667.75
2023-08-06T08:21:07.892Z,100663.75
2023-08-06T08:23:42.957Z,100666.56
2023-08-06T08:26:15.793Z,100674.00
2023-08-06T08:28:49.149Z,100674.00
2023-08-06T08:31:22.235Z,100675.59
2023-08-06T08:33:58.548Z,100682.09
2023-08-06T08:36:32.973Z,100669.66
2023-08-06T08:39:06.258Z,100676.47
2023-08-06T08:41:42.262Z,100687.69
2023-08-06T08:44:18.403Z,100682.94
2023-08-06T08:46:52.954Z,100689.97
2023-08-06T08:49:29.907Z,100699.81
2023-08-06T08:52:06.710Z,100689.00
2023-08-06T08:54:40.942Z,100699.31
2023-08-06T08:57:15.131Z,100687.19
2023-08-06T08:59:48.508Z,100696.00
2023-08-06T09:02:25.453Z,100696.56
2023-08-06T09:05:03.902Z,100700.56
2023-08-06T09:07:43.733Z,100719.28
2023-08-06T09:10:21.164Z,100705.63
2023-08-06T09:12:55.346Z,100713.00
2023-08-06T09:15:29.216Z,100715.47
2023-08-06T09:18:02.341Z,100711.88
2023-08-06T09:20:36.739Z,100713.81
2023-08-06T09:23:11.364Z,100721.44
2023-08-06T09:25:44.447Z,100725.28
2023-08-06T09:28:17.282Z,100727.88
2023-08-06T09:30:50.703Z,100725.16
2023-08-06T09:33:27.880Z,100732.06
2023-08-06T09:36:09.954Z,100730.50
2023-08-06T09:38:43.171Z,100729.63
2023-08-06T09:41:28.699Z,100726.53
2023-08-06T09:44:02.612Z,100736.84
2023-08-06T09:46:35.459Z,100741.63
2023-08-06T09:49:09.496Z,100738.41
2023-08-06T09:51:46.049Z,100741.06
2023-08-06T09:54:27.420Z,100743.00
2023-08-06T09:57:01.973Z,100749.22
2023-08-06T09:59:35.171Z,100749.47
2023-08-06T10:02:15.190Z,100747.09
2023-08-06T10:04:55.070Z,100754.66
2023-08-06T10:07:32.210Z,100763.09
2023-08-06T10:10:05.954Z,100763.84
2023-08-06T10:12:43.156Z,100766.91
2023-08-06T10:15:19.716Z,100759.00
2023-08-06T10:17:56.859Z,100775.94
2023-08-06T10:20:35.369Z,100777.94
2023-08-06T10:23:09.698Z,100779.44
2023-08-06T10:25:43.864Z,100780.38
2023-08-06T10:28:19.112Z,100783.25
2023-08-06T10:30:53.358Z,100776.66
2023-08-06T10:33:26.271Z,100779.25
2023-08-06T10:36:05.849Z,100784.19
2023-08-06T10:38:47.796Z,100786.34
2023-08-06T10:41:25.979Z,100777.56
2023-08-06T10:44:09.633Z,100778.59
2023-08-06T10:46:42.602Z,100780.41
2023-08-06T10:49:16.301Z,100778.56
2023-08-06T10:51:51.800Z,100776.13
2023-08-06T10:54:26.451Z,100789.84
2023-08-06T10:56:59.579Z,100787.09
2023-08-06T10:59:32.374Z,100785.28
2023-08-06T11:02:05.718Z,100792.19
2023-08-06T11:04:38.674Z,100790.75
2023-08-06T11:07:12.012Z,100795.00
2023-08-06T11:09:46.514Z,100794.00
2023-08-06T11:12:20.563Z,100796.22
2023-08-06T11:14:53.433Z,100791.97
2023-08-06T11:17:26.944Z,100794.41
2023-08-06T11:20:01.178Z,100801.47
2023-08-06T11:22:34.121Z,100809.72
2023-08-06T11:25:09.066Z,100813.03
2023-08-06T11:27:41.839Z,100816.75
2023-08-06T11:30:14.626Z,100808.59
2023-08-06T11:32:48.256Z,100810.75
2023-08-06T11:35:21.113Z,100805.97
2023-08-06T11:37:54.015Z,100806.19
2023-08-06T11:40:28.075Z,100800.03
2023-08-06T11:43:01.247Z,100818.38
2023-08-06T11:45:37.361Z,100816.44
2023-08-06T11:48:10.551Z,100812.22
2023-08-06T11:50:43.462Z,100816.88
2023-08-06T11:53:17.036Z,100816.00
2023-08-06T11:55:51.621Z,100823.03
2023-08-06T11:58:24.383Z,100812.28
2023-08-06T12:00:58.575Z,100821.47
2023-08-06T12:03:32.572Z,100815.09
2023-08-06T12:06:06.074Z,100817.44
2023-08-06T12:08:39.257Z,100821.69
2023-08-06T12:11:13.474Z,100834.03
2023-08-06T12:13:46.420Z,100833.97
2023-08-06T12:16:20.049Z,100839.94
2023-08-06T12:18:53.118Z,100841.03
2023-08-06T12:21:25.852Z,100845.84
2023-08-06T12:23:58.559Z,100848.63
2023-08-06T12:26:32.617Z,100848.59
2023-08-06T12:29:05.481Z,100851.44
2023-08-06T12:31:38.515Z,100854.63
2023-08-06T12:34:11.700Z,100860.38
2023-08-06T12:36:44.721Z,100851.38
2023-08-06T12:39:17.482Z,100853.72
2023-08-06T12:41:51.756Z,100860.13
2023-08-06T12:44:25.299Z,100865.94
2023-08-06T12:46:58.343Z,100880.22
2023-08-06T12:49:33.241Z,100886.28
2023-08-06T12:52:08.582Z,100888.16
2023-08-06T12:54:41.581Z,100903.34
2023-08-06T12:57:15.911Z,100900.69
2023-08-06T12:59:49.314Z,100910.09
2023-08-06T13:02:22.280Z,100907.41
2023-08-06T13:04:54.870Z,100910.56
2023-08-06T13:07:27.778Z,100923.41
2023-08-06T13:10:00.433Z,100920.38
2023-08-06T13:12:36.199Z,100930.56
2023-08-06T13:15:10.850Z,100939.69
2023-08-06T13:17:44.533Z,100947.38
2023-08-06T13:20:20.269Z,100960.53
2023-08-06T13:22:54.818Z,100966.31
2023-08-06T13:25:27.950Z,100958.69
2023-08-06T13:28:02.191Z,100981.41
2023-08-06T13:30:36.654Z,100981.16
2023-08-06T13:33:09.493Z,100980.28
2023-08-06T13:35:42.292Z,100978.94
2023-08-06T13:38:15.075Z,100984.59
2023-08-06T13:40:48.069Z,100991.66
2023-08-06T13:43:22.213Z,100989.81
2023-08-06T13:45:55.016Z,100996.44
2023-08-06T13:48:28.021Z,101003.75
2023-08-06T13:51:01.089Z,100998.34
2023-08-06T13:53:33.896Z,100996.88
2023-08-06T13:56:06.839Z,101012.28
2023-08-06T13:58:41.042Z,101009.38
2023-08-06T14:01:14.494Z,101008.88
2023-08-06T14:03:49.033Z,101018.78
2023-08-06T14:06:22.129Z,101019.38
2023-08-06T14:08:56.169Z,101029.63
2023-08-06T14:11:29.497Z,101043.88
2023-08-06T14:14:04.644Z,101039.63
2023-08-06T14:16:41.817Z,101050.31
2023-08-06T14:19:14.551Z,101041.63
2023-08-06T14:21:48.410Z,101032.91
2023-08-06T14:24:24.264Z,101050.59
2023-08-06T14:27:00.619Z,101055.28
2023-08-06T14:29:35.148Z,101067.34
2023-08-06T14:32:09.283Z,101073.63
2023-08-06T14:34:42.190Z,101080.91
2023-08-06T14:37:17.042Z,101071.34
2023-08-06T14:39:51.432Z,101080.22
2023-08-06T14:42:24.284Z,101082.75
2023-08-06T14:44:59.000Z,101086.75
2023-08-06T14:47:33.425Z,101081.28
2023-08-06T14:50:07.184Z,101076.69
2023-08-06T14:52:40.827Z,101076.41
2023-08-06T14:55:13.842Z,101099.81
2023-08-06T14:57:47.189Z,101116.25
2023-08-06T15:00:22.798Z,101124.72
2023-08-06T15:02:55.755Z,101135.97
2023-08-06T15:05:28.745Z,101134.41
2023-08-06T15:08:02.173Z,101134.09
2023-08-06T15:10:34.984Z,101136.53
2023-08-06T15:13:07.968Z,101132.97
2023-08-06T15:15:43.834Z,101135.31
2023-08-06T15:18:16.652Z,101144.06
2023-08-06T15:20:49.852Z,101145.34
2023-08-06T15:23:23.586Z,101142.63
2023-08-06T15:25:56.887Z,101141.84
2023-08-06T15:28:29.924Z,101168.13
2023-08-06T15:31:06.962Z,101171.31
2023-08-06T15:33:39.960Z,101165.34
2023-08-06T15:36:12.741Z,101164.56
2023-08-06T15:38:45.694Z,101167.34
2023-08-06T15:41:18.707Z,101161.00
2023-08-06T15:43:52.005Z,101165.41
2023-08-06T15:46:26.462Z,101170.69
2023-08-06T15:48:59.352Z,101170.75
2023-08-06T15:51:32.606Z,101175.53
2023-08-06T15:54:05.622Z,101170.38
2023-08-06T15:56:38.604Z,101166.03
2023-08-06T15:59:24.411Z,101171.59
2023-08-06T16:01:59.421Z,101183.59
2023-08-06T16:04:33.103Z,101178.84
2023-08-06T16:07:06.284Z,101194.03
2023-08-06T16:09:39.122Z,101187.63
2023-08-06T16:12:12.030Z,101196.81
2023-08-06T16:14:44.730Z,101197.63
2023-08-06T16:17:20.623Z,101199.59
2023-08-06T16:19:55.484Z,101198.88
2023-08-06T16:22:28.368Z,101210.00
2023-08-06T16:25:01.206Z,101210.03
2023-08-06T16:27:34.264Z,101205.25
2023-08-06T16:30:07.828Z,101218.78
2023-08-06T16:32:41.983Z,101210.34
2023-08-06T16:35:15.974Z,101211.56
2023-08-06T16:37:49.598Z,101213.34
2023-08-06T16:40:22.682Z,101204.19
2023-08-06T16:42:55.487Z,101214.03
2023-08-06T16:45:28.258Z,101225.22
2023-08-06T16:48:02.644Z,101234.00
2023-08-06T16:50:35.619Z,101227.72
2023-08-06T16:53:08.677Z,101226.91
2023-08-06T16:55:41.893Z,101234.16
2023-08-06T16:58:14.841Z,101224.22
2023-08-06T17:00:48.083Z,101230.25
2023-08-06T17:03:22.408Z,101226.34
2023-08-06T17:05:55.514Z,101235.81
2023-08-06T17:08:30.981Z,101244.94
2023-08-06T17:11:04.328Z,101239.94
2023-08-06T17:13:37.352Z,101244.72
2023-08-06T17:16:10.161Z,101240.72
2023-08-06T17:18:44.985Z,101256.59
2023-08-06T17:21:17.881Z,101253.47
2023-08-06T17:23:50.841Z,101249.47
2023-08-06T17:26:23.525Z,101255.09
2023-08-06T17:28:56.380Z,101259.38
2023-08-06T17:31:29.519Z,101260.28
2023-08-06T17:34:03.868Z,101280.56
2023-08-06T17:36:36.818Z,101263.50
2023-08-06T17:39:09.627Z,101277.00
2023-08-06T17:41:44.466Z,101286.47
2023-08-06T17:44:19.004Z,101299.63
2023-08-06T17:46:52.037Z,101294.91
2023-08-06T17:49:26.148Z,101286.16
2023-08-06T17:52:00.767Z,101282.97
2023-08-06T17:54:33.757Z,101293.28
2023-08-06T17:57:07.269Z,101294.84
2023-08-06T17:59:40.213Z,101288.16
2023-08-06T18:02:13.366Z,101294.59
2023-08-06T18:04:48.732Z,101319.50
2023-08-06T18:07:21.901Z,101300.94
2023-08-06T18:09:54.891Z,101311.19
2023-08-06T18:12:27.944Z,101317.56
2023-08-06T18:15:00.738Z,101308.91
2023-08-06T18:17:33.719Z,101303.72
2023-08-06T18:20:09.024Z,101308.47
2023-08-06T18:22:42.065Z,101295.84
2023-08-06T18:25:14.838Z,101310.09
2023-08-06T18:27:48.190Z,101304.53
2023-08-06T18:30:21.229Z,101299.88
2023-08-06T18:32:55.701Z,101307.78
2023-08-06T18:35:30.579Z,101304.59
2023-08-06T18:38:04.348Z,101304.28
2023-08-06T18:40:37.773Z,101298.31
2023-08-06T18:43:10.763Z,101301.50
2023-08-06T18:45:43.490Z,101310.22
2023-08-06T18:48:17.116Z,101309.81
2023-08-06T18:50:51.679Z,101306.28
2023-08-06T18:53:24.821Z,101316.56
2023-08-06T18:55:58.813Z,101314.97
2023-08-06T18:58:33.100Z,101316.56
2023-08-06T19:01:06.172Z,101309.41
2023-08-06T19:03:38.981Z,101312.59
2023-08-06T19:06:13.356Z,101327.69
2023-08-06T19:08:46.304Z,101330.84
2023-08-06T19:11:19.128Z,101321.41
2023-08-06T19:13:52.086Z,101333.28
2023-08-06T19:16:25.515Z,101333.28
2023-08-06T19:19:00.438Z,101335.31
2023-08-06T19:21:34.791Z,101342.44
2023-08-06T19:24:07.966Z,101336.91
2023-08-06T19:26:41.323Z,101338.88
2023-08-06T19:29:15.803Z,101332.09
2023-08-06T19:32:05.202Z,101346.00
2023-08-06T19:34:39.069Z,101342.06
2023-08-06T19:37:14.096Z,101342.06
2023-08-06T19:39:47.086Z,101347.63
2023-08-06T19:42:21.690Z,101352.75
2023-08-06T19:44:54.712Z,101348.78
2023-08-06T19:47:27.958Z,101348.44
2023-08-06T19:50:01.510Z,101337.34
2023-08-06T19:52:40.039Z,101344.91
2023-08-06T19:55:14.656Z,101336.97
2023-08-06T19:57:48.195Z,101354.38
2023-08-06T20:00:21.738Z,101352.03
2023-08-06T20:02:55.169Z,101350.03
2023-08-06T20:05:29.105Z,101347.66
2023-08-06T20:08:03.902Z,101341.34
2023-08-06T20:10:36.847Z,101340.94
2023-08-06T20:13:10.239Z,101343.31
2023-08-06T20:15:43.536Z,101341.38
2023-08-06T20:18:18.567Z,101340.59
2023-08-06T20:20:51.842Z,101345.72
2023-08-06T20:23:27.913Z,101326.31
2023-08-06T20:26:01.065Z,101339.78
2023-08-06T20:28:33.972Z,101348.91
2023-08-06T20:31:08.373Z,101343.75
2023-08-06T20:33:41.454Z,101346.91
2023-08-06T20:36:14.194Z,101342.19
2023-08-06T20:38:48.714Z,101340.97
2023-08-06T20:41:21.868Z,101345.34
2023-08-06T20:43:54.630Z,101360.34
2023-08-06T20:46:27.529Z,101344.53
2023-08-06T20:49:00.433Z,101345.34
2023-08-06T20:51:33.379Z,101351.28
2023-08-06T20:54:07.753Z,101353.69
2023-08-06T20:56:41.030Z,101361.19
2023-08-06T20:59:14.021Z,101359.59
2023-08-06T21:01:47.230Z,101362.75
2023-08-06T21:04:20.325Z,101355.22
2023-08-06T21:06:53.125Z,101361.19
2023-08-06T21:09:27.448Z,101357.22
2023-08-06T21:12:00.460Z,101365.13
2023-08-06T21:14:33.187Z,101367.50
2023-08-06T21:17:06.888Z,101363.16
2023-08-06T21:19:39.821Z,101363.56
2023-08-06T21:22:12.913Z,101362.75
2023-08-06T21:24:47.262Z,101363.53
2023-08-06T21:27:20.136Z,101357.25
2023-08-06T21:29:53.210Z,101372.66
2023-08-06T21:32:26.394Z,101365.91
2023-08-06T21:35:00.757Z,101365.13
2023-08-06T21:37:34.064Z,101364.34
2023-08-06T21:40:09.874Z,101369.47
2023-08-06T21:42:45.932Z,101363.56
2023-08-06T21:45:19.067Z,101358.44
2023-08-06T21:47:52.080Z,101374.25
2023-08-06T21:50:25.226Z,101370.69
2023-08-06T21:52:58.542Z,101371.09
2023-08-06T21:55:35.980Z,101377.03
2023-08-06T21:58:08.962Z,101371.09
2023-08-06T22:00:41.866Z,101376.22
2023-08-06T22:03:15.576Z,101359.63
2023-08-06T22:05:48.984Z,101380.19
2023-08-06T22:08:22.599Z,101383.38
2023-08-06T22:10:57.973Z,101382.56
2023-08-06T22:13:31.314Z,101370.31
2023-08-06T22:16:05.708Z,101368.72
2023-08-06T22:18:38.729Z,101364.78
2023-08-06T22:21:11.437Z,101366.72
2023-08-06T22:23:44.777Z,101371.88
2023-08-06T22:26:18.986Z,101385.72
2023-08-06T22:29:01.084Z,101370.69
2023-08-06T22:31:34.849Z,101364.38
2023-08-06T22:34:07.823Z,101377.44
2023-08-06T22:36:40.810Z,101373.88
2023-08-06T22:39:13.751Z,101365.16
2023-08-06T22:41:47.985Z,101376.22
2023-08-06T22:44:20.892Z,101380.59
2023-08-06T22:46:53.875Z,101374.66
2023-08-06T22:49:26.988Z,101380.22
2023-08-06T22:52:00.269Z,101378.59
2023-08-06T22:54:33.407Z,101373.44
2023-08-06T22:57:10.629Z,101372.66
2023-08-06T22:59:43.612Z,101373.44
2023-08-06T23:02:16.618Z,101384.50
2023-08-06T23:04:49.618Z,101378.59
2023-08-06T23:07:22.884Z,101377.81
2023-08-06T23:09:55.861Z,101379.41
2023-08-06T23:12:30.022Z,101380.16
2023-08-06T23:15:02.987Z,101384.13
2023-08-06T23:17:35.911Z,101389.66
2023-08-06T23:20:10.182Z,101388.09
2023-08-06T23:22:43.587Z,101380.59
2023-08-06T23:25:16.568Z,101392.44
2023-08-06T23:27:50.753Z,101387.28
2023-08-06T23:30:23.843Z,101393.22
2023-08-06T23:32:56.927Z,101383.75
2023-08-06T23:35:30.097Z,101391.25
2023-08-06T23:38:03.227Z,101389.66
2023-08-06T23:40:36.270Z,101384.53
2023-08-06T23:43:11.225Z,101386.09
2023-08-06T23:45:44.305Z,101393.63
2023-08-06T23:48:17.708Z,101388.88
2023-08-06T23:50:50.670Z,101396.00
2023-08-06T23:53:23.614Z,101378.22
2023-08-06T23:55:56.369Z,101396.78
2023-08-06T23:58:30.699Z,101396.00
